Ana Sayfa
METAR-TAF:

METAR-TAF

Havaalanları :

Rexburg-Madison County Airport

Rexburg, Idaho, Amerika Birleşik Devletleri

Enlem: 43-49-54N, Boylam: 111-48-22W, yükseklik: 1481 m

Güncel hava durumu gözlemi

Rapor saat 11:53 UTC de 50 dakika önce yapıldı.
Rüzgar kuzey/kuzeydoğudan 4 kt
Sıcaklık 11°C
Nem 76%
Basınç 1014 hPa
Görüş mesafesi: 16.1 km
Açık gökyüzü

METAR: KRXE 271153Z AUTO 02004KT 10SM CLR 11/07 A2994 RMK AO2 SLP101 T01060067 10183 20100 53005

Saat: 06:43 (12:43 UTC)


TAF: eksik

4.000'den fazla havaalanı için hava durumu gözlemleri ve tahminleri (METAR ve TAF raporları).

Kullanılabilir istasyonlar harita üzerinde sarı ve kırmızı noktalarla gösterilir.

İstasyonun adını görmek için fareyi noktanın üzerinde gezdirin.

Sonrasında hava gözlem ve tahminlerini görmek için tıklayın.

Haritayı değiştirmek için: yaklaştırmak için siyah artı işaretli yeşil düğmeye ve uzaklaştırmak için de eksi işaretli düğmeye hızla tıklayın; bitişik haritalar için yeşil okları kullanın.


METAR-TAF: